createdAt,value
2018-07-05T00:01:55.378Z,8.37
2018-07-05T00:04:36.904Z,7.10
2018-07-05T00:07:18.913Z,6.67
2018-07-05T00:10:01.071Z,7.03
2018-07-05T00:12:42.633Z,6.07
2018-07-05T00:15:25.276Z,7.73
2018-07-05T00:18:07.067Z,8.67
2018-07-05T00:20:48.471Z,7.00
2018-07-05T00:23:30.441Z,6.73
2018-07-05T00:26:12.432Z,8.60
2018-07-05T00:28:54.407Z,8.70
2018-07-05T00:31:36.091Z,11.00
2018-07-05T00:34:18.026Z,7.73
2018-07-05T00:37:00.446Z,8.43
2018-07-05T00:39:41.800Z,6.70
2018-07-05T00:42:23.069Z,7.13
2018-07-05T00:45:04.592Z,5.97
2018-07-05T00:47:46.703Z,8.20
2018-07-05T00:50:28.781Z,4.33
2018-07-05T00:53:10.607Z,8.57
2018-07-05T00:55:52.762Z,67.27
2018-07-05T00:58:34.174Z,37.07
2018-07-05T01:01:15.347Z,42.00
2018-07-05T01:03:57.344Z,6.57
2018-07-05T01:06:39.079Z,7.83
2018-07-05T01:09:20.456Z,9.50
2018-07-05T01:12:02.498Z,5.40
2018-07-05T01:14:44.490Z,5.97
2018-07-05T01:17:26.452Z,9.07
2018-07-05T01:20:07.422Z,8.27
2018-07-05T01:22:49.091Z,7.00
2018-07-05T01:25:30.703Z,6.73
2018-07-05T01:28:12.345Z,7.70
2018-07-05T01:30:54.177Z,9.77
2018-07-05T01:33:36.060Z,5.67
2018-07-05T01:36:17.866Z,10.90
2018-07-05T01:39:00.057Z,11.40
2018-07-05T01:41:41.844Z,18.50
2018-07-05T01:44:23.684Z,7.43
2018-07-05T01:47:05.700Z,9.87
2018-07-05T01:49:47.510Z,9.37
2018-07-05T01:52:29.457Z,7.30
2018-07-05T01:55:11.461Z,12.40
2018-07-05T01:57:53.426Z,12.67
2018-07-05T02:00:35.057Z,7.80
2018-07-05T02:03:16.831Z,8.87
2018-07-05T02:05:58.425Z,13.10
2018-07-05T02:08:40.255Z,8.97
2018-07-05T02:11:22.407Z,5.70
2018-07-05T02:14:05.001Z,7.67
2018-07-05T02:16:46.431Z,12.90
2018-07-05T02:19:28.197Z,7.20
2018-07-05T02:22:09.800Z,10.60
2018-07-05T02:24:51.385Z,7.13
2018-07-05T02:27:32.988Z,7.23
2018-07-05T02:30:14.996Z,8.70
2018-07-05T02:32:56.980Z,5.73
2018-07-05T02:35:38.725Z,8.73
2018-07-05T02:38:24.894Z,7.40
2018-07-05T02:41:08.461Z,5.37
2018-07-05T02:43:50.307Z,8.07
2018-07-05T02:46:32.073Z,6.50
2018-07-05T02:49:13.789Z,9.40
2018-07-05T02:51:55.528Z,6.87
2018-07-05T02:54:37.155Z,10.20
2018-07-05T02:57:19.327Z,8.40
2018-07-05T03:00:01.050Z,10.40
2018-07-05T03:02:42.843Z,8.07
2018-07-05T03:05:24.431Z,11.00
2018-07-05T03:08:06.454Z,13.40
2018-07-05T03:10:48.007Z,13.97
2018-07-05T03:13:30.118Z,16.87
2018-07-05T03:16:12.299Z,14.57
2018-07-05T03:18:54.101Z,13.37
2018-07-05T03:21:36.885Z,14.00
2018-07-05T03:24:19.203Z,12.27
2018-07-05T03:27:01.177Z,14.03
2018-07-05T03:29:42.816Z,17.00
2018-07-05T03:32:25.019Z,15.23
2018-07-05T03:35:06.994Z,13.93
2018-07-05T03:37:48.762Z,15.60
2018-07-05T03:40:30.791Z,16.83
2018-07-05T03:43:12.587Z,16.03
2018-07-05T03:45:54.570Z,20.77
2018-07-05T03:48:36.586Z,19.50
2018-07-05T03:51:18.468Z,21.73
2018-07-05T03:54:00.198Z,23.33
2018-07-05T03:56:42.425Z,25.93
2018-07-05T03:59:24.552Z,24.00
2018-07-05T04:02:06.171Z,19.00
2018-07-05T04:04:47.143Z,20.03
2018-07-05T04:07:28.969Z,20.77
2018-07-05T04:10:04.899Z,19.13
2018-07-05T04:12:46.504Z,18.87
2018-07-05T04:15:28.127Z,18.87
2018-07-05T04:18:10.104Z,19.40
2018-07-05T04:20:51.830Z,23.27
2018-07-05T04:23:33.416Z,19.30
2018-07-05T04:26:15.018Z,21.00
2018-07-05T04:28:57.174Z,27.67
2018-07-05T04:31:38.885Z,34.23
2018-07-05T04:34:20.984Z,93.10
2018-07-05T04:37:02.780Z,36.47
2018-07-05T04:39:44.346Z,24.47
2018-07-05T04:42:25.966Z,32.90
2018-07-05T04:45:07.983Z,35.50
2018-07-05T04:47:49.932Z,83.87
2018-07-05T04:50:31.752Z,66.70
2018-07-05T04:53:13.382Z,37.50
2018-07-05T04:55:55.528Z,26.57
2018-07-05T04:58:37.120Z,22.77
2018-07-05T05:01:18.148Z,32.07
2018-07-05T05:03:59.696Z,43.00
2018-07-05T05:06:40.690Z,48.93
2018-07-05T05:09:22.874Z,49.37
2018-07-05T05:12:04.662Z,41.67
2018-07-05T05:14:46.204Z,40.50
2018-07-05T05:17:27.844Z,30.60
2018-07-05T05:20:09.613Z,29.07
2018-07-05T05:22:51.241Z,53.70
2018-07-05T05:25:32.795Z,174.87
2018-07-05T05:28:14.486Z,43.10
2018-07-05T05:30:55.872Z,35.47
2018-07-05T05:33:37.639Z,39.33
2018-07-05T05:36:19.041Z,38.20
2018-07-05T05:39:00.670Z,41.40
2018-07-05T05:41:42.243Z,42.23
2018-07-05T05:44:23.841Z,38.57
2018-07-05T05:47:05.391Z,52.00
2018-07-05T05:49:47.008Z,44.70
2018-07-05T05:52:28.614Z,59.27
2018-07-05T05:55:10.376Z,49.70
2018-07-05T05:57:52.139Z,54.30
2018-07-05T06:00:33.935Z,50.90
2018-07-05T06:03:15.381Z,48.10
2018-07-05T06:05:57.128Z,51.37
2018-07-05T06:08:38.689Z,41.83
2018-07-05T06:11:20.290Z,41.57
2018-07-05T06:14:01.976Z,42.10
2018-07-05T06:16:43.700Z,52.00
2018-07-05T06:19:25.588Z,64.20
2018-07-05T06:22:08.681Z,63.63
2018-07-05T06:24:50.100Z,69.37
2018-07-05T06:27:31.870Z,61.17
2018-07-05T06:30:13.680Z,59.10
2018-07-05T06:32:55.674Z,53.87
2018-07-05T06:35:37.209Z,53.80
2018-07-05T06:38:18.437Z,44.27
2018-07-05T06:40:59.990Z,40.90
2018-07-05T06:43:41.452Z,44.37
2018-07-05T06:46:23.160Z,36.27
2018-07-05T06:49:04.898Z,37.20
2018-07-05T06:51:46.681Z,41.43
2018-07-05T06:54:28.675Z,51.00
2018-07-05T06:57:11.262Z,35.13
2018-07-05T06:59:52.863Z,39.17
2018-07-05T07:02:34.413Z,37.97
2018-07-05T07:05:16.051Z,37.73
2018-07-05T07:07:57.873Z,30.90
2018-07-05T07:10:39.603Z,35.07
2018-07-05T07:13:21.003Z,32.47
2018-07-05T07:16:02.853Z,31.80
2018-07-05T07:18:44.766Z,32.40
2018-07-05T07:21:26.591Z,31.37
2018-07-05T07:24:08.541Z,28.37
2018-07-05T07:26:50.226Z,28.30
2018-07-05T07:29:31.947Z,25.27
2018-07-05T07:32:13.559Z,23.10
2018-07-05T07:34:55.121Z,23.63
2018-07-05T07:37:36.746Z,20.33
2018-07-05T07:40:18.119Z,25.67
2018-07-05T07:42:47.620Z,20.80
2018-07-05T07:45:17.151Z,21.50
2018-07-05T07:47:46.897Z,21.43
2018-07-05T07:50:16.659Z,17.97
2018-07-05T07:52:46.339Z,20.33
2018-07-05T07:55:16.015Z,14.93
2018-07-05T07:57:45.588Z,13.93
2018-07-05T08:00:15.061Z,19.77
2018-07-05T08:02:44.454Z,16.83
2018-07-05T08:05:13.985Z,12.93
2018-07-05T08:07:43.443Z,15.80
2018-07-05T08:10:13.170Z,21.43
2018-07-05T08:12:43.242Z,12.60
2018-07-05T08:15:12.693Z,14.90
2018-07-05T08:17:42.418Z,14.00
2018-07-05T08:20:12.148Z,13.10
2018-07-05T08:22:41.614Z,15.47
2018-07-05T08:25:11.530Z,11.47
2018-07-05T08:27:41.068Z,16.90
2018-07-05T08:30:10.569Z,12.57
2018-07-05T08:32:40.199Z,14.03
2018-07-05T08:35:10.195Z,14.40
2018-07-05T08:37:39.659Z,13.20
2018-07-05T08:40:09.353Z,14.37
2018-07-05T08:42:39.071Z,15.73
2018-07-05T08:45:08.760Z,20.33
2018-07-05T08:47:38.499Z,13.17
2018-07-05T08:50:08.022Z,16.27
2018-07-05T08:52:37.516Z,15.13
2018-07-05T08:55:07.020Z,15.53
2018-07-05T08:57:36.554Z,15.40
2018-07-05T09:00:06.199Z,15.70
2018-07-05T09:02:35.699Z,15.70
2018-07-05T09:05:05.466Z,14.63
2018-07-05T09:07:35.412Z,15.47
2018-07-05T09:10:04.873Z,14.63
2018-07-05T09:12:34.629Z,17.80
2018-07-05T09:15:04.501Z,15.90
2018-07-05T09:17:34.679Z,13.60
2018-07-05T09:20:04.342Z,18.17
2018-07-05T09:22:34.473Z,11.30
2018-07-05T09:25:04.679Z,16.90
2018-07-05T09:27:35.292Z,16.43
2018-07-05T09:30:04.934Z,15.33
2018-07-05T09:32:34.631Z,13.13
2018-07-05T09:35:04.292Z,14.33
2018-07-05T09:37:34.061Z,14.77
2018-07-05T09:40:03.513Z,13.70
2018-07-05T09:42:33.025Z,12.73
2018-07-05T09:45:02.553Z,16.63
2018-07-05T09:47:32.173Z,12.27
2018-07-05T09:50:01.757Z,12.83
2018-07-05T09:52:31.442Z,17.10
2018-07-05T09:55:00.932Z,14.77
2018-07-05T09:57:31.306Z,14.10
2018-07-05T10:00:00.994Z,17.03
2018-07-05T10:02:30.661Z,16.03
2018-07-05T10:05:00.428Z,19.30
2018-07-05T10:07:30.294Z,12.50
2018-07-05T10:09:59.999Z,13.40
2018-07-05T10:12:29.714Z,17.00
2018-07-05T10:14:59.454Z,19.60
2018-07-05T10:17:29.149Z,18.07
2018-07-05T10:19:58.868Z,14.50
2018-07-05T10:22:28.817Z,15.10
2018-07-05T10:24:58.258Z,11.70
2018-07-05T10:27:27.580Z,17.10
2018-07-05T10:30:09.565Z,15.80
2018-07-05T10:32:51.568Z,16.93
2018-07-05T10:35:21.074Z,12.57
2018-07-05T10:37:51.184Z,15.83
2018-07-05T10:40:33.134Z,19.37
2018-07-05T10:43:14.388Z,14.37
2018-07-05T10:45:56.163Z,16.20
2018-07-05T10:48:37.730Z,13.33
2018-07-05T10:51:19.995Z,15.10
2018-07-05T10:54:01.859Z,15.00
2018-07-05T10:56:43.212Z,18.27
2018-07-05T10:59:25.016Z,15.73
2018-07-05T11:02:06.410Z,16.47
2018-07-05T11:04:47.985Z,17.67
2018-07-05T11:07:29.984Z,14.57
2018-07-05T11:10:11.370Z,15.27
2018-07-05T11:12:52.993Z,18.90
2018-07-05T11:15:34.735Z,16.50
2018-07-05T11:18:16.249Z,20.17
2018-07-05T11:20:57.906Z,19.37
2018-07-05T11:23:39.426Z,16.27
2018-07-05T11:26:20.976Z,24.07
2018-07-05T11:29:02.634Z,18.80
2018-07-05T11:31:44.600Z,18.53
2018-07-05T11:34:26.182Z,25.03
2018-07-05T11:37:07.748Z,23.10
2018-07-05T11:39:49.134Z,20.17
2018-07-05T11:42:31.143Z,19.87
2018-07-05T11:45:12.970Z,17.50
2018-07-05T11:47:54.402Z,17.03
2018-07-05T11:50:35.935Z,14.90
2018-07-05T11:53:17.676Z,18.63
2018-07-05T11:55:59.089Z,20.97
2018-07-05T11:58:40.887Z,20.30
2018-07-05T12:01:22.443Z,20.33
2018-07-05T12:04:03.989Z,18.50
2018-07-05T12:06:45.720Z,20.53
2018-07-05T12:09:27.145Z,21.77
2018-07-05T12:12:09.116Z,17.73
2018-07-05T12:14:50.894Z,18.17
2018-07-05T12:17:32.455Z,16.43
2018-07-05T12:20:14.294Z,18.63
2018-07-05T12:22:56.492Z,28.60
2018-07-05T12:25:38.232Z,20.03
2018-07-05T12:28:19.954Z,23.20
2018-07-05T12:31:01.552Z,21.67
2018-07-05T12:33:43.965Z,24.63
2018-07-05T12:36:25.745Z,15.30
2018-07-05T12:39:07.209Z,16.37
2018-07-05T12:41:48.645Z,16.40
2018-07-05T12:44:31.453Z,17.80
2018-07-05T12:47:13.061Z,27.20
2018-07-05T12:49:54.811Z,24.07
2018-07-05T12:52:36.423Z,14.70
2018-07-05T12:55:18.318Z,19.90
2018-07-05T12:58:00.192Z,20.43
2018-07-05T13:00:41.776Z,18.03
2018-07-05T13:03:23.186Z,15.00
2018-07-05T13:06:04.737Z,16.63
2018-07-05T13:08:46.152Z,20.10
2018-07-05T13:11:27.926Z,15.03
2018-07-05T13:14:09.825Z,17.10
2018-07-05T13:16:51.631Z,18.20
2018-07-05T13:19:33.438Z,17.03
2018-07-05T13:22:14.994Z,14.77
2018-07-05T13:24:56.897Z,13.87
2018-07-05T13:27:38.268Z,16.00
2018-07-05T13:30:19.925Z,17.50
2018-07-05T13:33:01.867Z,23.47
2018-07-05T13:35:43.874Z,16.03
2018-07-05T13:38:25.446Z,23.53
2018-07-05T13:41:07.493Z,15.30
2018-07-05T13:43:49.219Z,15.23
2018-07-05T13:46:31.039Z,13.83
2018-07-05T13:49:12.815Z,14.13
2018-07-05T13:51:54.612Z,17.37
2018-07-05T13:54:36.174Z,14.07
2018-07-05T13:57:17.981Z,13.40
2018-07-05T13:59:59.618Z,13.07
2018-07-05T14:02:41.190Z,17.13
2018-07-05T14:05:22.531Z,17.70
2018-07-05T14:08:03.607Z,16.13
2018-07-05T14:10:45.302Z,15.57
2018-07-05T14:13:26.910Z,16.57
2018-07-05T14:16:08.460Z,13.07
2018-07-05T14:18:50.106Z,18.47
2018-07-05T14:21:31.654Z,17.13
2018-07-05T14:24:13.298Z,15.80
2018-07-05T14:26:55.028Z,17.83
2018-07-05T14:29:36.861Z,22.30
2018-07-05T14:32:18.419Z,20.17
2018-07-05T14:34:59.993Z,23.80
2018-07-05T14:37:42.020Z,17.20
2018-07-05T14:40:23.841Z,24.17
2018-07-05T14:43:05.167Z,26.83
2018-07-05T14:45:46.782Z,17.23
2018-07-05T14:48:28.379Z,22.17
2018-07-05T14:51:10.222Z,19.80
2018-07-05T14:53:51.760Z,19.30
2018-07-05T14:56:33.130Z,23.17
2018-07-05T14:59:14.698Z,18.03
2018-07-05T15:01:56.156Z,20.50
2018-07-05T15:04:37.648Z,15.30
2018-07-05T15:07:19.256Z,15.50
2018-07-05T15:10:00.438Z,22.47
2018-07-05T15:15:27.948Z,27.37
2018-07-05T15:18:09.887Z,18.20
2018-07-05T15:20:51.730Z,19.80
2018-07-05T15:23:33.683Z,23.00
2018-07-05T15:26:15.112Z,22.37
2018-07-05T15:28:56.495Z,21.70
2018-07-05T15:31:38.042Z,19.33
2018-07-05T15:34:19.827Z,15.17
2018-07-05T15:37:01.441Z,19.63
2018-07-05T15:39:43.779Z,17.43
2018-07-05T15:42:25.101Z,21.73
2018-07-05T15:45:07.063Z,17.50
2018-07-05T15:47:48.889Z,18.77
2018-07-05T15:50:30.573Z,20.73
2018-07-05T15:53:12.340Z,17.53
2018-07-05T15:55:54.080Z,17.40
2018-07-05T15:58:35.729Z,23.87
2018-07-05T16:01:17.648Z,23.13
2018-07-05T16:03:59.034Z,20.07
2018-07-05T16:06:40.836Z,19.93
2018-07-05T16:09:22.396Z,20.07
2018-07-05T16:12:04.202Z,18.03
2018-07-05T16:14:46.112Z,18.63
2018-07-05T16:17:27.491Z,20.90
2018-07-05T16:20:09.286Z,24.70
2018-07-05T16:22:51.079Z,27.43
2018-07-05T16:25:32.651Z,25.10
2018-07-05T16:28:14.290Z,26.27
2018-07-05T16:30:55.661Z,22.00
2018-07-05T16:33:37.235Z,19.43
2018-07-05T16:36:19.002Z,21.90
2018-07-05T16:39:00.385Z,18.70
2018-07-05T16:41:42.377Z,20.80
2018-07-05T16:44:24.277Z,22.33
2018-07-05T16:47:05.678Z,19.37
2018-07-05T16:49:47.289Z,20.00
2018-07-05T16:52:29.288Z,17.30
2018-07-05T16:55:10.897Z,20.80
2018-07-05T16:57:52.418Z,16.10
2018-07-05T17:00:34.208Z,21.30
2018-07-05T17:03:16.194Z,19.17
2018-07-05T17:05:58.033Z,19.57
2018-07-05T17:08:39.584Z,19.60
2018-07-05T17:11:20.990Z,20.20
2018-07-05T17:14:02.778Z,17.20
2018-07-05T17:16:44.572Z,15.93
2018-07-05T17:19:25.785Z,14.80
2018-07-05T17:22:07.345Z,14.10
2018-07-05T17:24:49.129Z,14.93
2018-07-05T17:27:30.500Z,13.07
2018-07-05T17:30:14.249Z,11.00
2018-07-05T17:32:55.583Z,13.97
2018-07-05T17:35:38.617Z,12.93
2018-07-05T17:38:20.461Z,14.77
2018-07-05T17:41:02.437Z,12.20
2018-07-05T17:43:44.439Z,11.67
2018-07-05T17:46:26.227Z,11.20
2018-07-05T17:49:07.616Z,9.80
2018-07-05T17:51:49.207Z,9.97
2018-07-05T17:54:30.679Z,13.80
2018-07-05T17:57:12.359Z,13.60
2018-07-05T17:59:53.987Z,12.90
2018-07-05T18:02:35.564Z,13.43
2018-07-05T18:05:17.142Z,12.97
2018-07-05T18:07:58.710Z,13.27
2018-07-05T18:10:40.518Z,14.47
2018-07-05T18:13:22.208Z,15.33
2018-07-05T18:16:03.627Z,11.20
2018-07-05T18:18:45.173Z,12.70
2018-07-05T18:21:27.001Z,10.97
2018-07-05T18:24:09.385Z,11.10
2018-07-05T18:26:50.993Z,11.23
2018-07-05T18:29:32.783Z,12.50
2018-07-05T18:32:14.357Z,12.30
2018-07-05T18:34:55.721Z,10.90
2018-07-05T18:37:37.308Z,11.27
2018-07-05T18:40:18.693Z,11.80
2018-07-05T18:43:00.386Z,12.10
2018-07-05T18:45:42.779Z,10.53
2018-07-05T18:48:24.170Z,9.90
2018-07-05T18:51:05.793Z,11.43
2018-07-05T18:53:47.651Z,9.80
2018-07-05T18:56:29.273Z,11.00
2018-07-05T18:59:11.023Z,14.83
2018-07-05T19:01:52.618Z,10.40
2018-07-05T19:04:34.421Z,10.03
2018-07-05T19:07:16.019Z,8.03
2018-07-05T19:09:57.582Z,9.77
2018-07-05T19:12:39.510Z,10.37
2018-07-05T19:15:21.048Z,10.10
2018-07-05T19:18:02.870Z,8.90
2018-07-05T19:20:44.855Z,11.43
2018-07-05T19:23:26.448Z,10.50
2018-07-05T19:26:08.315Z,7.60
2018-07-05T19:28:50.062Z,11.73
2018-07-05T19:31:31.631Z,8.77
2018-07-05T19:34:13.420Z,7.50
2018-07-05T19:36:55.017Z,7.70
2018-07-05T19:39:36.410Z,8.20
2018-07-05T19:42:17.981Z,10.23
2018-07-05T19:44:59.576Z,6.97
2018-07-05T19:47:41.550Z,7.47
2018-07-05T19:50:22.956Z,7.67
2018-07-05T19:53:04.634Z,9.30
2018-07-05T19:55:46.222Z,7.33
2018-07-05T19:58:27.626Z,10.60
2018-07-05T20:01:08.977Z,8.70
2018-07-05T20:03:51.072Z,11.60
2018-07-05T20:06:32.701Z,7.47
2018-07-05T20:09:14.476Z,7.23
2018-07-05T20:12:00.790Z,6.43
2018-07-05T20:14:42.564Z,7.00
2018-07-05T20:17:24.792Z,7.40
2018-07-05T20:20:06.654Z,7.20
2018-07-05T20:22:47.830Z,9.13
2018-07-05T20:25:29.634Z,6.07
2018-07-05T20:28:11.207Z,6.67
2018-07-05T20:30:53.208Z,4.90
2018-07-05T20:33:34.581Z,6.10
2018-07-05T20:36:16.009Z,5.30
2018-07-05T20:38:57.739Z,5.13
2018-07-05T20:41:39.156Z,4.67
2018-07-05T20:44:20.542Z,8.80
2018-07-05T20:47:02.562Z,11.80
2018-07-05T20:49:43.900Z,6.23
2018-07-05T20:52:25.530Z,6.40
2018-07-05T20:55:07.092Z,8.87
2018-07-05T20:57:48.717Z,5.07
2018-07-05T21:00:30.030Z,8.10
2018-07-05T21:03:11.942Z,6.67
2018-07-05T21:05:53.530Z,5.97
2018-07-05T21:08:35.346Z,3.63
2018-07-05T21:11:17.108Z,5.03
2018-07-05T21:13:58.678Z,4.60
2018-07-05T21:16:40.179Z,6.23
2018-07-05T21:19:22.010Z,6.10
2018-07-05T21:22:03.959Z,6.00
2018-07-05T21:24:46.237Z,4.83
2018-07-05T21:27:27.980Z,5.90
2018-07-05T21:30:09.405Z,5.50
2018-07-05T21:32:50.957Z,8.47
2018-07-05T21:35:32.539Z,6.40
2018-07-05T21:38:14.213Z,4.83
2018-07-05T21:40:56.026Z,5.83
2018-07-05T21:43:37.795Z,6.10
2018-07-05T21:46:19.597Z,7.40
2018-07-05T21:49:01.319Z,5.27
2018-07-05T21:51:43.725Z,6.50
2018-07-05T21:54:25.300Z,5.30
2018-07-05T21:57:06.927Z,5.87
2018-07-05T21:59:48.647Z,7.40
2018-07-05T22:02:29.873Z,6.27
2018-07-05T22:05:14.573Z,4.83
2018-07-05T22:07:56.319Z,7.67
2018-07-05T22:10:37.887Z,4.13
2018-07-05T22:13:19.500Z,8.13
2018-07-05T22:16:01.250Z,4.80
2018-07-05T22:18:47.395Z,5.13
2018-07-05T22:21:29.173Z,5.23
2018-07-05T22:24:15.666Z,6.27
2018-07-05T22:26:57.436Z,4.50
2018-07-05T22:29:43.571Z,4.73
2018-07-05T22:32:25.311Z,6.83
2018-07-05T22:35:06.947Z,6.43
2018-07-05T22:37:48.470Z,2.83
2018-07-05T22:40:30.125Z,3.80
2018-07-05T22:43:11.663Z,2.20
2018-07-05T22:45:53.263Z,2.70
2018-07-05T22:48:34.635Z,8.00
2018-07-05T22:51:16.725Z,3.67
2018-07-05T22:53:58.846Z,4.80
2018-07-05T22:56:40.450Z,3.33
2018-07-05T22:59:21.715Z,6.13
2018-07-05T23:02:03.341Z,11.30
2018-07-05T23:04:44.713Z,6.73
2018-07-05T23:07:25.880Z,3.00
2018-07-05T23:10:07.439Z,6.37
2018-07-05T23:12:49.237Z,12.00
2018-07-05T23:15:31.023Z,7.77
2018-07-05T23:18:12.841Z,3.00
2018-07-05T23:20:54.385Z,4.20
2018-07-05T23:23:35.999Z,4.63
2018-07-05T23:26:17.381Z,3.43
2018-07-05T23:28:58.974Z,3.97
2018-07-05T23:31:40.661Z,4.53
2018-07-05T23:34:22.225Z,4.63
2018-07-05T23:37:03.771Z,4.70
2018-07-05T23:39:39.281Z,4.47
2018-07-05T23:42:20.861Z,5.83
2018-07-05T23:45:02.264Z,6.00
2018-07-05T23:47:43.798Z,4.60
2018-07-05T23:50:25.212Z,8.13
2018-07-05T23:53:06.603Z,3.70
2018-07-05T23:55:49.026Z,4.70
2018-07-05T23:58:30.514Z,5.10
